sensor_id;sensor_type;location;lat;lon;timestamp;P1;durP1;ratioP1;P2;durP2;ratioP2
62951;SDS011;52163;52.212;-1.002;2023-02-08T00:01:10;33.60;;;22.00;;
62951;SDS011;52163;52.212;-1.002;2023-02-08T00:03:37;36.70;;;21.80;;
62951;SDS011;52163;52.212;-1.002;2023-02-08T00:06:03;29.10;;;17.70;;
62951;SDS011;52163;52.212;-1.002;2023-02-08T00:08:30;31.30;;;16.10;;
62951;SDS011;52163;52.212;-1.002;2023-02-08T00:10:56;29.30;;;16.60;;
62951;SDS011;52163;52.212;-1.002;2023-02-08T00:13:21;26.20;;;15.80;;
62951;SDS011;52163;52.212;-1.002;2023-02-08T00:15:47;30.50;;;16.10;;
62951;SDS011;52163;52.212;-1.002;2023-02-08T00:18:13;29.40;;;15.50;;
62951;SDS011;52163;52.212;-1.002;2023-02-08T00:20:39;27.90;;;16.20;;
62951;SDS011;52163;52.212;-1.002;2023-02-08T00:23:06;31.60;;;17.00;;
62951;SDS011;52163;52.212;-1.002;2023-02-08T00:25:32;25.60;;;15.90;;
62951;SDS011;52163;52.212;-1.002;2023-02-08T00:27:57;36.00;;;16.10;;
62951;SDS011;52163;52.212;-1.002;2023-02-08T00:30:22;34.90;;;20.00;;
62951;SDS011;52163;52.212;-1.002;2023-02-08T00:32:48;42.90;;;22.20;;
62951;SDS011;52163;52.212;-1.002;2023-02-08T00:35:13;37.10;;;21.70;;
62951;SDS011;52163;52.212;-1.002;2023-02-08T00:37:39;27.40;;;16.90;;
62951;SDS011;52163;52.212;-1.002;2023-02-08T00:40:05;24.20;;;15.50;;
62951;SDS011;52163;52.212;-1.002;2023-02-08T00:42:31;26.90;;;16.50;;
62951;SDS011;52163;52.212;-1.002;2023-02-08T00:44:57;32.80;;;17.80;;
62951;SDS011;52163;52.212;-1.002;2023-02-08T00:47:22;37.10;;;17.90;;
62951;SDS011;52163;52.212;-1.002;2023-02-08T00:49:48;36.90;;;18.30;;
62951;SDS011;52163;52.212;-1.002;2023-02-08T00:52:13;37.80;;;21.40;;
62951;SDS011;52163;52.212;-1.002;2023-02-08T00:54:39;49.50;;;25.20;;
62951;SDS011;52163;52.212;-1.002;2023-02-08T00:57:06;47.70;;;25.40;;
62951;SDS011;52163;52.212;-1.002;2023-02-08T00:59:31;46.90;;;24.50;;
62951;SDS011;52163;52.212;-1.002;2023-02-08T01:01:57;31.20;;;18.60;;
62951;SDS011;52163;52.212;-1.002;2023-02-08T01:04:22;31.40;;;18.10;;
62951;SDS011;52163;52.212;-1.002;2023-02-08T01:06:47;24.60;;;16.40;;
62951;SDS011;52163;52.212;-1.002;2023-02-08T01:09:13;30.70;;;17.60;;
62951;SDS011;52163;52.212;-1.002;2023-02-08T01:11:38;26.90;;;16.80;;
62951;SDS011;52163;52.212;-1.002;2023-02-08T01:14:03;27.50;;;16.50;;
62951;SDS011;52163;52.212;-1.002;2023-02-08T01:16:30;27.70;;;17.20;;
62951;SDS011;52163;52.212;-1.002;2023-02-08T01:18:57;25.20;;;14.40;;
62951;SDS011;52163;52.212;-1.002;2023-02-08T01:21:29;31.50;;;17.20;;
62951;SDS011;52163;52.212;-1.002;2023-02-08T01:23:57;41.10;;;22.80;;
62951;SDS011;52163;52.212;-1.002;2023-02-08T01:26:24;46.90;;;27.60;;
62951;SDS011;52163;52.212;-1.002;2023-02-08T01:28:50;32.90;;;20.70;;
62951;SDS011;52163;52.212;-1.002;2023-02-08T01:31:20;32.80;;;17.20;;
62951;SDS011;52163;52.212;-1.002;2023-02-08T01:33:47;22.60;;;14.70;;
62951;SDS011;52163;52.212;-1.002;2023-02-08T01:36:13;26.20;;;16.10;;
62951;SDS011;52163;52.212;-1.002;2023-02-08T01:38:40;22.80;;;15.40;;
62951;SDS011;52163;52.212;-1.002;2023-02-08T01:41:06;30.70;;;16.10;;
62951;SDS011;52163;52.212;-1.002;2023-02-08T01:46:40;25.80;;;14.90;;
62951;SDS011;52163;52.212;-1.002;2023-02-08T01:49:09;16.30;;;10.10;;
62951;SDS011;52163;52.212;-1.002;2023-02-08T01:51:47;16.90;;;11.70;;
62951;SDS011;52163;52.212;-1.002;2023-02-08T01:54:18;19.50;;;13.60;;
62951;SDS011;52163;52.212;-1.002;2023-02-08T01:56:48;22.30;;;15.30;;
62951;SDS011;52163;52.212;-1.002;2023-02-08T01:59:25;33.70;;;19.20;;
62951;SDS011;52163;52.212;-1.002;2023-02-08T02:01:57;42.90;;;23.80;;
62951;SDS011;52163;52.212;-1.002;2023-02-08T02:04:24;34.60;;;22.80;;
62951;SDS011;52163;52.212;-1.002;2023-02-08T02:06:52;29.80;;;16.60;;
62951;SDS011;52163;52.212;-1.002;2023-02-08T02:11:56;22.80;;;13.50;;
62951;SDS011;52163;52.212;-1.002;2023-02-08T02:14:22;25.90;;;14.20;;
62951;SDS011;52163;52.212;-1.002;2023-02-08T02:16:48;22.00;;;13.50;;
62951;SDS011;52163;52.212;-1.002;2023-02-08T02:19:14;25.00;;;13.20;;
62951;SDS011;52163;52.212;-1.002;2023-02-08T02:30:09;52.60;;;27.70;;
62951;SDS011;52163;52.212;-1.002;2023-02-08T02:32:44;39.20;;;19.80;;
62951;SDS011;52163;52.212;-1.002;2023-02-08T02:44:37;26.40;;;15.70;;
62951;SDS011;52163;52.212;-1.002;2023-02-08T02:47:44;27.20;;;14.00;;
62951;SDS011;52163;52.212;-1.002;2023-02-08T02:53:26;20.50;;;12.40;;
62951;SDS011;52163;52.212;-1.002;2023-02-08T02:56:05;21.20;;;12.40;;
62951;SDS011;52163;52.212;-1.002;2023-02-08T02:58:36;26.70;;;14.80;;
62951;SDS011;52163;52.212;-1.002;2023-02-08T03:01:04;32.50;;;19.80;;
62951;SDS011;52163;52.212;-1.002;2023-02-08T03:03:30;49.40;;;23.40;;
62951;SDS011;52163;52.212;-1.002;2023-02-08T03:06:05;63.80;;;27.40;;
62951;SDS011;52163;52.212;-1.002;2023-02-08T03:11:35;32.10;;;20.40;;
62951;SDS011;52163;52.212;-1.002;2023-02-08T03:16:56;25.50;;;15.90;;
62951;SDS011;52163;52.212;-1.002;2023-02-08T03:22:21;28.30;;;16.20;;
62951;SDS011;52163;52.212;-1.002;2023-02-08T03:24:59;24.90;;;14.80;;
62951;SDS011;52163;52.212;-1.002;2023-02-08T03:27:33;24.80;;;14.70;;
62951;SDS011;52163;52.212;-1.002;2023-02-08T03:30:08;29.90;;;16.80;;
62951;SDS011;52163;52.212;-1.002;2023-02-08T03:32:42;35.60;;;20.40;;
62951;SDS011;52163;52.212;-1.002;2023-02-08T03:40:26;26.60;;;13.80;;
62951;SDS011;52163;52.212;-1.002;2023-02-08T03:42:57;22.70;;;12.60;;
62951;SDS011;52163;52.212;-1.002;2023-02-08T03:45:29;23.90;;;12.70;;
62951;SDS011;52163;52.212;-1.002;2023-02-08T03:50:28;22.70;;;13.60;;
62951;SDS011;52163;52.212;-1.002;2023-02-08T03:52:58;23.60;;;12.60;;
62951;SDS011;52163;52.212;-1.002;2023-02-08T03:55:29;27.10;;;13.00;;
62951;SDS011;52163;52.212;-1.002;2023-02-08T03:58:11;20.30;;;12.50;;
62951;SDS011;52163;52.212;-1.002;2023-02-08T04:00:40;28.60;;;15.40;;
62951;SDS011;52163;52.212;-1.002;2023-02-08T04:03:16;41.00;;;20.30;;
62951;SDS011;52163;52.212;-1.002;2023-02-08T04:05:46;50.80;;;23.80;;
62951;SDS011;52163;52.212;-1.002;2023-02-08T04:08:13;43.00;;;22.70;;
62951;SDS011;52163;52.212;-1.002;2023-02-08T04:10:38;34.90;;;19.20;;
62951;SDS011;52163;52.212;-1.002;2023-02-08T04:13:04;21.00;;;13.60;;
62951;SDS011;52163;52.212;-1.002;2023-02-08T04:15:29;23.00;;;13.30;;
62951;SDS011;52163;52.212;-1.002;2023-02-08T04:17:55;23.80;;;13.60;;
62951;SDS011;52163;52.212;-1.002;2023-02-08T04:20:20;23.40;;;14.50;;
62951;SDS011;52163;52.212;-1.002;2023-02-08T04:22:46;21.90;;;12.90;;
62951;SDS011;52163;52.212;-1.002;2023-02-08T04:25:11;29.90;;;15.60;;
62951;SDS011;52163;52.212;-1.002;2023-02-08T04:27:38;36.70;;;20.20;;
62951;SDS011;52163;52.212;-1.002;2023-02-08T04:30:05;45.60;;;23.10;;
62951;SDS011;52163;52.212;-1.002;2023-02-08T04:32:31;37.10;;;20.10;;
62951;SDS011;52163;52.212;-1.002;2023-02-08T04:34:57;24.10;;;13.70;;
62951;SDS011;52163;52.212;-1.002;2023-02-08T04:37:22;23.00;;;12.70;;
62951;SDS011;52163;52.212;-1.002;2023-02-08T04:39:48;22.10;;;12.40;;
62951;SDS011;52163;52.212;-1.002;2023-02-08T04:42:13;23.90;;;13.30;;
62951;SDS011;52163;52.212;-1.002;2023-02-08T04:44:39;24.40;;;14.00;;
62951;SDS011;52163;52.212;-1.002;2023-02-08T04:47:04;21.80;;;13.40;;
62951;SDS011;52163;52.212;-1.002;2023-02-08T04:49:30;25.80;;;12.60;;
62951;SDS011;52163;52.212;-1.002;2023-02-08T04:51:55;22.10;;;13.30;;
62951;SDS011;52163;52.212;-1.002;2023-02-08T04:54:21;24.50;;;13.50;;
62951;SDS011;52163;52.212;-1.002;2023-02-08T04:56:47;23.40;;;15.40;;
62951;SDS011;52163;52.212;-1.002;2023-02-08T04:59:12;36.50;;;18.70;;
62951;SDS011;52163;52.212;-1.002;2023-02-08T05:01:38;38.50;;;21.30;;
62951;SDS011;52163;52.212;-1.002;2023-02-08T05:04:03;33.20;;;17.20;;
62951;SDS011;52163;52.212;-1.002;2023-02-08T05:06:29;20.50;;;13.70;;
62951;SDS011;52163;52.212;-1.002;2023-02-08T05:08:54;24.60;;;12.10;;
62951;SDS011;52163;52.212;-1.002;2023-02-08T05:11:20;22.90;;;13.10;;
62951;SDS011;52163;52.212;-1.002;2023-02-08T05:13:47;24.90;;;13.00;;
62951;SDS011;52163;52.212;-1.002;2023-02-08T05:16:13;19.30;;;12.10;;
62951;SDS011;52163;52.212;-1.002;2023-02-08T05:18:38;21.30;;;12.40;;
62951;SDS011;52163;52.212;-1.002;2023-02-08T05:21:04;20.40;;;11.10;;
62951;SDS011;52163;52.212;-1.002;2023-02-08T05:23:29;22.90;;;13.60;;
62951;SDS011;52163;52.212;-1.002;2023-02-08T05:25:56;24.20;;;12.10;;
62951;SDS011;52163;52.212;-1.002;2023-02-08T05:28:21;24.70;;;13.90;;
62951;SDS011;52163;52.212;-1.002;2023-02-08T05:30:47;35.40;;;18.90;;
62951;SDS011;52163;52.212;-1.002;2023-02-08T05:33:12;43.00;;;21.50;;
62951;SDS011;52163;52.212;-1.002;2023-02-08T05:35:38;36.70;;;20.50;;
62951;SDS011;52163;52.212;-1.002;2023-02-08T05:38:03;28.00;;;15.90;;
62951;SDS011;52163;52.212;-1.002;2023-02-08T05:40:29;25.40;;;13.50;;
62951;SDS011;52163;52.212;-1.002;2023-02-08T05:42:56;27.70;;;14.20;;
62951;SDS011;52163;52.212;-1.002;2023-02-08T05:45:21;24.50;;;13.70;;
62951;SDS011;52163;52.212;-1.002;2023-02-08T05:47:47;20.70;;;12.60;;
62951;SDS011;52163;52.212;-1.002;2023-02-08T05:50:12;24.60;;;13.30;;
62951;SDS011;52163;52.212;-1.002;2023-02-08T05:52:38;19.30;;;12.90;;
62951;SDS011;52163;52.212;-1.002;2023-02-08T05:55:04;23.10;;;12.60;;
62951;SDS011;52163;52.212;-1.002;2023-02-08T05:57:31;18.90;;;10.80;;
62951;SDS011;52163;52.212;-1.002;2023-02-08T05:59:56;22.40;;;11.10;;
62951;SDS011;52163;52.212;-1.002;2023-02-08T06:02:22;24.00;;;13.70;;
62951;SDS011;52163;52.212;-1.002;2023-02-08T06:04:47;43.50;;;21.80;;
62951;SDS011;52163;52.212;-1.002;2023-02-08T06:07:13;48.70;;;24.30;;
62951;SDS011;52163;52.212;-1.002;2023-02-08T06:09:39;51.40;;;24.60;;
62951;SDS011;52163;52.212;-1.002;2023-02-08T06:12:04;35.40;;;18.50;;
62951;SDS011;52163;52.212;-1.002;2023-02-08T06:14:30;26.50;;;13.40;;
62951;SDS011;52163;52.212;-1.002;2023-02-08T06:16:55;20.40;;;13.80;;
62951;SDS011;52163;52.212;-1.002;2023-02-08T06:19:20;23.10;;;12.60;;
62951;SDS011;52163;52.212;-1.002;2023-02-08T06:21:46;28.50;;;13.70;;
62951;SDS011;52163;52.212;-1.002;2023-02-08T06:24:11;32.30;;;14.40;;
62951;SDS011;52163;52.212;-1.002;2023-02-08T06:26:37;23.00;;;13.50;;
62951;SDS011;52163;52.212;-1.002;2023-02-08T06:29:03;22.60;;;12.50;;
62951;SDS011;52163;52.212;-1.002;2023-02-08T06:31:29;20.90;;;12.40;;
62951;SDS011;52163;52.212;-1.002;2023-02-08T06:33:54;20.70;;;12.60;;
62951;SDS011;52163;52.212;-1.002;2023-02-08T06:36:20;29.90;;;14.50;;
62951;SDS011;52163;52.212;-1.002;2023-02-08T06:38:45;44.20;;;19.90;;
62951;SDS011;52163;52.212;-1.002;2023-02-08T06:41:11;46.90;;;22.30;;
62951;SDS011;52163;52.212;-1.002;2023-02-08T06:43:36;43.40;;;21.90;;
62951;SDS011;52163;52.212;-1.002;2023-02-08T06:46:01;29.20;;;16.10;;
62951;SDS011;52163;52.212;-1.002;2023-02-08T06:48:32;23.00;;;13.00;;
62951;SDS011;52163;52.212;-1.002;2023-02-08T06:50:59;24.60;;;13.10;;
62951;SDS011;52163;52.212;-1.002;2023-02-08T06:53:25;22.50;;;13.30;;
62951;SDS011;52163;52.212;-1.002;2023-02-08T06:55:51;29.10;;;13.40;;
62951;SDS011;52163;52.212;-1.002;2023-02-08T06:58:17;25.00;;;13.80;;
62951;SDS011;52163;52.212;-1.002;2023-02-08T07:00:43;25.70;;;13.20;;
62951;SDS011;52163;52.212;-1.002;2023-02-08T07:03:11;31.30;;;16.60;;
62951;SDS011;52163;52.212;-1.002;2023-02-08T07:05:39;42.00;;;20.80;;
62951;SDS011;52163;52.212;-1.002;2023-02-08T07:08:05;55.80;;;26.30;;
62951;SDS011;52163;52.212;-1.002;2023-02-08T07:10:31;68.90;;;29.50;;
62951;SDS011;52163;52.212;-1.002;2023-02-08T07:12:57;50.90;;;25.90;;
62951;SDS011;52163;52.212;-1.002;2023-02-08T07:15:23;30.20;;;17.50;;
62951;SDS011;52163;52.212;-1.002;2023-02-08T07:17:49;30.20;;;16.00;;
62951;SDS011;52163;52.212;-1.002;2023-02-08T07:20:14;29.30;;;14.90;;
62951;SDS011;52163;52.212;-1.002;2023-02-08T07:22:40;36.00;;;18.60;;
62951;SDS011;52163;52.212;-1.002;2023-02-08T07:25:06;56.10;;;24.50;;
62951;SDS011;52163;52.212;-1.002;2023-02-08T07:27:32;64.10;;;28.20;;
62951;SDS011;52163;52.212;-1.002;2023-02-08T07:29:58;43.80;;;23.20;;
62951;SDS011;52163;52.212;-1.002;2023-02-08T07:32:23;32.30;;;17.60;;
62951;SDS011;52163;52.212;-1.002;2023-02-08T07:34:48;28.50;;;13.90;;
62951;SDS011;52163;52.212;-1.002;2023-02-08T07:37:14;30.10;;;14.90;;
62951;SDS011;52163;52.212;-1.002;2023-02-08T07:39:39;27.80;;;14.40;;
62951;SDS011;52163;52.212;-1.002;2023-02-08T07:42:06;35.90;;;16.90;;
62951;SDS011;52163;52.212;-1.002;2023-02-08T07:44:33;48.90;;;23.30;;
62951;SDS011;52163;52.212;-1.002;2023-02-08T07:46:58;55.00;;;25.30;;
62951;SDS011;52163;52.212;-1.002;2023-02-08T07:49:25;49.00;;;23.90;;
62951;SDS011;52163;52.212;-1.002;2023-02-08T07:51:51;27.80;;;15.90;;
62951;SDS011;52163;52.212;-1.002;2023-02-08T07:54:16;29.40;;;14.80;;
62951;SDS011;52163;52.212;-1.002;2023-02-08T07:56:42;24.90;;;14.60;;
62951;SDS011;52163;52.212;-1.002;2023-02-08T07:59:07;23.10;;;14.10;;
62951;SDS011;52163;52.212;-1.002;2023-02-08T08:01:33;31.00;;;17.10;;
62951;SDS011;52163;52.212;-1.002;2023-02-08T08:03:58;42.70;;;20.80;;
62951;SDS011;52163;52.212;-1.002;2023-02-08T08:06:23;46.60;;;23.80;;
62951;SDS011;52163;52.212;-1.002;2023-02-08T08:08:49;31.20;;;17.20;;
62951;SDS011;52163;52.212;-1.002;2023-02-08T08:11:15;21.90;;;13.60;;
62951;SDS011;52163;52.212;-1.002;2023-02-08T08:13:41;30.00;;;13.90;;
62951;SDS011;52163;52.212;-1.002;2023-02-08T08:16:07;21.00;;;13.70;;
62951;SDS011;52163;52.212;-1.002;2023-02-08T08:18:33;21.60;;;13.70;;
62951;SDS011;52163;52.212;-1.002;2023-02-08T08:20:59;25.90;;;14.50;;
62951;SDS011;52163;52.212;-1.002;2023-02-08T08:23:25;25.20;;;15.20;;
62951;SDS011;52163;52.212;-1.002;2023-02-08T08:25:53;24.90;;;14.90;;
62951;SDS011;52163;52.212;-1.002;2023-02-08T08:28:19;32.90;;;17.20;;
62951;SDS011;52163;52.212;-1.002;2023-02-08T08:30:44;38.90;;;21.00;;
62951;SDS011;52163;52.212;-1.002;2023-02-08T08:33:10;45.40;;;23.80;;
62951;SDS011;52163;52.212;-1.002;2023-02-08T08:35:38;33.50;;;18.40;;
62951;SDS011;52163;52.212;-1.002;2023-02-08T08:38:04;24.80;;;14.70;;
62951;SDS011;52163;52.212;-1.002;2023-02-08T08:40:30;26.60;;;15.80;;
62951;SDS011;52163;52.212;-1.002;2023-02-08T08:42:56;24.10;;;13.70;;
62951;SDS011;52163;52.212;-1.002;2023-02-08T08:45:21;25.30;;;13.70;;
62951;SDS011;52163;52.212;-1.002;2023-02-08T08:47:47;24.50;;;13.40;;
62951;SDS011;52163;52.212;-1.002;2023-02-08T08:50:13;20.80;;;12.30;;
62951;SDS011;52163;52.212;-1.002;2023-02-08T08:52:38;34.00;;;17.00;;
62951;SDS011;52163;52.212;-1.002;2023-02-08T08:55:04;46.30;;;20.80;;
62951;SDS011;52163;52.212;-1.002;2023-02-08T08:57:31;38.70;;;20.60;;
62951;SDS011;52163;52.212;-1.002;2023-02-08T08:59:56;29.80;;;16.40;;
62951;SDS011;52163;52.212;-1.002;2023-02-08T09:02:22;25.70;;;13.80;;
62951;SDS011;52163;52.212;-1.002;2023-02-08T09:04:47;22.30;;;13.50;;
62951;SDS011;52163;52.212;-1.002;2023-02-08T09:07:12;24.50;;;12.90;;
62951;SDS011;52163;52.212;-1.002;2023-02-08T09:09:38;22.20;;;14.10;;
62951;SDS011;52163;52.212;-1.002;2023-02-08T09:12:04;27.90;;;15.00;;
62951;SDS011;52163;52.212;-1.002;2023-02-08T09:14:30;38.00;;;18.20;;
62951;SDS011;52163;52.212;-1.002;2023-02-08T09:16:56;33.40;;;17.60;;
62951;SDS011;52163;52.212;-1.002;2023-02-08T09:19:21;27.10;;;15.10;;
62951;SDS011;52163;52.212;-1.002;2023-02-08T09:21:47;22.30;;;14.50;;
62951;SDS011;52163;52.212;-1.002;2023-02-08T09:24:12;22.30;;;13.80;;
62951;SDS011;52163;52.212;-1.002;2023-02-08T09:26:38;24.00;;;14.40;;
62951;SDS011;52163;52.212;-1.002;2023-02-08T09:29:04;22.40;;;14.10;;
62951;SDS011;52163;52.212;-1.002;2023-02-08T09:31:34;23.10;;;14.50;;
62951;SDS011;52163;52.212;-1.002;2023-02-08T09:34:02;31.50;;;16.50;;
62951;SDS011;52163;52.212;-1.002;2023-02-08T09:36:30;35.70;;;19.00;;
62951;SDS011;52163;52.212;-1.002;2023-02-08T09:38:59;40.90;;;20.90;;
62951;SDS011;52163;52.212;-1.002;2023-02-08T09:41:47;29.30;;;16.90;;
62951;SDS011;52163;52.212;-1.002;2023-02-08T09:44:40;25.10;;;15.30;;
62951;SDS011;52163;52.212;-1.002;2023-02-08T09:47:13;25.40;;;14.40;;
62951;SDS011;52163;52.212;-1.002;2023-02-08T09:52:49;31.20;;;18.50;;
62951;SDS011;52163;52.212;-1.002;2023-02-08T09:55:36;50.50;;;25.10;;
62951;SDS011;52163;52.212;-1.002;2023-02-08T10:00:43;40.30;;;23.60;;
62951;SDS011;52163;52.212;-1.002;2023-02-08T10:05:46;35.20;;;20.30;;
62951;SDS011;52163;52.212;-1.002;2023-02-08T10:08:12;29.20;;;16.10;;
62951;SDS011;52163;52.212;-1.002;2023-02-08T10:10:43;35.10;;;19.10;;
62951;SDS011;52163;52.212;-1.002;2023-02-08T10:16:20;38.50;;;20.90;;
62951;SDS011;52163;52.212;-1.002;2023-02-08T10:27:13;23.00;;;14.30;;
62951;SDS011;52163;52.212;-1.002;2023-02-08T10:35:12;37.80;;;18.50;;
62951;SDS011;52163;52.212;-1.002;2023-02-08T10:37:42;30.70;;;17.00;;
62951;SDS011;52163;52.212;-1.002;2023-02-08T10:40:14;25.50;;;15.50;;
62951;SDS011;52163;52.212;-1.002;2023-02-08T10:45:52;24.80;;;14.60;;
62951;SDS011;52163;52.212;-1.002;2023-02-08T10:51:27;19.40;;;11.60;;
62951;SDS011;52163;52.212;-1.002;2023-02-08T10:53:54;29.70;;;14.70;;
62951;SDS011;52163;52.212;-1.002;2023-02-08T10:59:10;34.20;;;19.10;;
62951;SDS011;52163;52.212;-1.002;2023-02-08T11:01:39;21.80;;;14.00;;
62951;SDS011;52163;52.212;-1.002;2023-02-08T11:04:09;27.90;;;15.90;;
62951;SDS011;52163;52.212;-1.002;2023-02-08T11:06:36;23.80;;;14.20;;
62951;SDS011;52163;52.212;-1.002;2023-02-08T11:09:02;25.30;;;14.20;;
62951;SDS011;52163;52.212;-1.002;2023-02-08T11:11:36;24.50;;;14.00;;
62951;SDS011;52163;52.212;-1.002;2023-02-08T11:14:08;20.70;;;12.50;;
62951;SDS011;52163;52.212;-1.002;2023-02-08T11:16:39;25.30;;;13.70;;
62951;SDS011;52163;52.212;-1.002;2023-02-08T11:19:05;32.80;;;16.20;;
62951;SDS011;52163;52.212;-1.002;2023-02-08T11:21:42;26.00;;;15.60;;
62951;SDS011;52163;52.212;-1.002;2023-02-08T11:24:21;24.50;;;13.10;;
62951;SDS011;52163;52.212;-1.002;2023-02-08T11:26:47;21.00;;;12.60;;
62951;SDS011;52163;52.212;-1.002;2023-02-08T11:29:18;20.70;;;12.50;;
62951;SDS011;52163;52.212;-1.002;2023-02-08T11:34:33;19.90;;;12.10;;
62951;SDS011;52163;52.212;-1.002;2023-02-08T11:39:51;19.30;;;11.30;;
62951;SDS011;52163;52.212;-1.002;2023-02-08T11:42:20;19.70;;;10.70;;
62951;SDS011;52163;52.212;-1.002;2023-02-08T11:44:49;20.60;;;12.10;;
62951;SDS011;52163;52.212;-1.002;2023-02-08T11:47:16;18.70;;;10.70;;
62951;SDS011;52163;52.212;-1.002;2023-02-08T11:49:56;16.50;;;9.40;;
62951;SDS011;52163;52.212;-1.002;2023-02-08T11:52:25;13.90;;;9.00;;
62951;SDS011;52163;52.212;-1.002;2023-02-08T11:54:54;18.70;;;9.70;;
62951;SDS011;52163;52.212;-1.002;2023-02-08T11:57:36;15.00;;;8.60;;
62951;SDS011;52163;52.212;-1.002;2023-02-08T12:00:20;16.30;;;9.70;;
62951;SDS011;52163;52.212;-1.002;2023-02-08T12:02:50;13.00;;;8.60;;
62951;SDS011;52163;52.212;-1.002;2023-02-08T12:05:20;13.40;;;6.60;;
62951;SDS011;52163;52.212;-1.002;2023-02-08T12:08:29;9.40;;;6.50;;
62951;SDS011;52163;52.212;-1.002;2023-02-08T12:11:15;17.70;;;8.80;;
62951;SDS011;52163;52.212;-1.002;2023-02-08T12:19:57;13.50;;;8.70;;
62951;SDS011;52163;52.212;-1.002;2023-02-08T12:22:30;14.60;;;8.50;;
62951;SDS011;52163;52.212;-1.002;2023-02-08T12:27:31;13.50;;;8.00;;
62951;SDS011;52163;52.212;-1.002;2023-02-08T12:33:23;16.40;;;9.70;;
62951;SDS011;52163;52.212;-1.002;2023-02-08T12:47:52;15.20;;;8.90;;
62951;SDS011;52163;52.212;-1.002;2023-02-08T12:50:30;15.70;;;9.50;;
62951;SDS011;52163;52.212;-1.002;2023-02-08T12:53:11;13.30;;;9.00;;
62951;SDS011;52163;52.212;-1.002;2023-02-08T12:55:44;14.00;;;9.20;;
62951;SDS011;52163;52.212;-1.002;2023-02-08T12:58:23;16.40;;;9.00;;
62951;SDS011;52163;52.212;-1.002;2023-02-08T13:01:54;13.50;;;9.30;;
62951;SDS011;52163;52.212;-1.002;2023-02-08T13:04:06;14.60;;;8.20;;
62951;SDS011;52163;52.212;-1.002;2023-02-08T13:06:38;12.50;;;8.60;;
62951;SDS011;52163;52.212;-1.002;2023-02-08T13:11:40;14.00;;;8.50;;
62951;SDS011;52163;52.212;-1.002;2023-02-08T13:14:14;14.80;;;9.10;;
62951;SDS011;52163;52.212;-1.002;2023-02-08T13:16:54;15.60;;;8.30;;
62951;SDS011;52163;52.212;-1.002;2023-02-08T13:19:25;14.70;;;8.90;;
62951;SDS011;52163;52.212;-1.002;2023-02-08T13:21:55;18.30;;;9.50;;
62951;SDS011;52163;52.212;-1.002;2023-02-08T13:24:25;16.70;;;8.80;;
62951;SDS011;52163;52.212;-1.002;2023-02-08T13:26:58;13.50;;;8.20;;
62951;SDS011;52163;52.212;-1.002;2023-02-08T13:29:23;14.60;;;9.50;;
62951;SDS011;52163;52.212;-1.002;2023-02-08T13:31:51;14.20;;;9.80;;
62951;SDS011;52163;52.212;-1.002;2023-02-08T13:37:01;14.50;;;8.50;;
62951;SDS011;52163;52.212;-1.002;2023-02-08T13:41:58;12.70;;;8.40;;
62951;SDS011;52163;52.212;-1.002;2023-02-08T13:44:28;15.70;;;9.10;;
62951;SDS011;52163;52.212;-1.002;2023-02-08T13:46:56;16.90;;;9.80;;
62951;SDS011;52163;52.212;-1.002;2023-02-08T13:52:10;16.20;;;9.00;;
62951;SDS011;52163;52.212;-1.002;2023-02-08T13:54:36;15.00;;;9.00;;
62951;SDS011;52163;52.212;-1.002;2023-02-08T13:57:04;14.60;;;8.90;;
62951;SDS011;52163;52.212;-1.002;2023-02-08T14:00:14;17.40;;;10.10;;
62951;SDS011;52163;52.212;-1.002;2023-02-08T14:08:07;17.60;;;10.50;;
62951;SDS011;52163;52.212;-1.002;2023-02-08T14:13:53;16.80;;;10.20;;
62951;SDS011;52163;52.212;-1.002;2023-02-08T14:18:59;19.30;;;10.40;;
62951;SDS011;52163;52.212;-1.002;2023-02-08T14:21:34;18.20;;;10.20;;
62951;SDS011;52163;52.212;-1.002;2023-02-08T14:24:06;15.60;;;9.80;;
62951;SDS011;52163;52.212;-1.002;2023-02-08T14:26:47;15.80;;;10.20;;
62951;SDS011;52163;52.212;-1.002;2023-02-08T14:29:23;15.70;;;9.70;;
62951;SDS011;52163;52.212;-1.002;2023-02-08T14:31:54;13.80;;;8.00;;
62951;SDS011;52163;52.212;-1.002;2023-02-08T14:34:22;12.70;;;7.70;;
62951;SDS011;52163;52.212;-1.002;2023-02-08T14:37:02;13.60;;;8.60;;
62951;SDS011;52163;52.212;-1.002;2023-02-08T14:39:48;13.00;;;8.20;;
62951;SDS011;52163;52.212;-1.002;2023-02-08T14:43:04;16.40;;;8.20;;
62951;SDS011;52163;52.212;-1.002;2023-02-08T14:45:34;14.20;;;8.50;;
62951;SDS011;52163;52.212;-1.002;2023-02-08T14:48:22;11.20;;;7.50;;
62951;SDS011;52163;52.212;-1.002;2023-02-08T14:50:55;12.40;;;7.40;;
62951;SDS011;52163;52.212;-1.002;2023-02-08T14:56:13;14.30;;;7.80;;
62951;SDS011;52163;52.212;-1.002;2023-02-08T14:58:44;11.30;;;7.70;;
62951;SDS011;52163;52.212;-1.002;2023-02-08T15:01:19;14.40;;;8.90;;
62951;SDS011;52163;52.212;-1.002;2023-02-08T15:03:49;14.80;;;8.10;;
62951;SDS011;52163;52.212;-1.002;2023-02-08T15:09:03;13.20;;;8.30;;
62951;SDS011;52163;52.212;-1.002;2023-02-08T15:11:31;14.00;;;8.40;;
62951;SDS011;52163;52.212;-1.002;2023-02-08T15:13:59;13.70;;;8.60;;
62951;SDS011;52163;52.212;-1.002;2023-02-08T15:16:31;13.70;;;9.60;;
62951;SDS011;52163;52.212;-1.002;2023-02-08T15:18:59;12.80;;;8.70;;
62951;SDS011;52163;52.212;-1.002;2023-02-08T15:21:28;14.00;;;7.90;;
62951;SDS011;52163;52.212;-1.002;2023-02-08T15:24:03;9.50;;;7.20;;
62951;SDS011;52163;52.212;-1.002;2023-02-08T15:26:46;14.10;;;8.30;;
62951;SDS011;52163;52.212;-1.002;2023-02-08T15:29:26;14.20;;;8.80;;
62951;SDS011;52163;52.212;-1.002;2023-02-08T15:31:56;18.40;;;8.60;;
62951;SDS011;52163;52.212;-1.002;2023-02-08T15:34:22;17.50;;;8.80;;
62951;SDS011;52163;52.212;-1.002;2023-02-08T15:36:50;15.10;;;8.60;;
62951;SDS011;52163;52.212;-1.002;2023-02-08T15:41:47;18.60;;;9.10;;
62951;SDS011;52163;52.212;-1.002;2023-02-08T15:44:16;13.80;;;8.40;;
62951;SDS011;52163;52.212;-1.002;2023-02-08T15:46:46;14.90;;;8.80;;
62951;SDS011;52163;52.212;-1.002;2023-02-08T15:49:13;16.10;;;9.50;;
62951;SDS011;52163;52.212;-1.002;2023-02-08T15:51:42;17.30;;;9.80;;
62951;SDS011;52163;52.212;-1.002;2023-02-08T15:54:15;14.40;;;8.90;;
62951;SDS011;52163;52.212;-1.002;2023-02-08T15:56:46;16.90;;;10.00;;
62951;SDS011;52163;52.212;-1.002;2023-02-08T15:59:33;18.30;;;10.10;;
62951;SDS011;52163;52.212;-1.002;2023-02-08T16:02:20;17.50;;;9.30;;
62951;SDS011;52163;52.212;-1.002;2023-02-08T16:04:55;16.00;;;9.40;;
62951;SDS011;52163;52.212;-1.002;2023-02-08T16:09:47;12.00;;;8.00;;
62951;SDS011;52163;52.212;-1.002;2023-02-08T16:12:17;12.60;;;7.90;;
62951;SDS011;52163;52.212;-1.002;2023-02-08T16:14:45;15.30;;;8.60;;
62951;SDS011;52163;52.212;-1.002;2023-02-08T16:17:27;16.60;;;8.30;;
62951;SDS011;52163;52.212;-1.002;2023-02-08T16:19:57;19.30;;;8.70;;
62951;SDS011;52163;52.212;-1.002;2023-02-08T16:22:24;16.80;;;9.70;;
62951;SDS011;52163;52.212;-1.002;2023-02-08T16:27:59;18.30;;;8.50;;
62951;SDS011;52163;52.212;-1.002;2023-02-08T16:30:25;13.50;;;8.40;;
62951;SDS011;52163;52.212;-1.002;2023-02-08T16:32:51;16.50;;;8.70;;
62951;SDS011;52163;52.212;-1.002;2023-02-08T16:35:23;12.80;;;8.50;;
62951;SDS011;52163;52.212;-1.002;2023-02-08T16:37:57;14.90;;;8.20;;
62951;SDS011;52163;52.212;-1.002;2023-02-08T16:43:19;14.30;;;7.50;;
62951;SDS011;52163;52.212;-1.002;2023-02-08T16:46:30;15.80;;;8.50;;
62951;SDS011;52163;52.212;-1.002;2023-02-08T16:48:40;15.10;;;8.10;;